createdAt,value
2018-11-04T00:00:04.031Z,2.93
2018-11-04T00:01:03.849Z,2.95
2018-11-04T00:02:03.840Z,2.92
2018-11-04T00:03:03.837Z,2.90
2018-11-04T00:04:03.827Z,2.92
2018-11-04T00:05:03.808Z,2.89
2018-11-04T00:06:03.802Z,2.83
2018-11-04T00:07:03.790Z,2.87
2018-11-04T00:08:03.779Z,2.87
2018-11-04T00:09:03.783Z,2.83
2018-11-04T00:10:03.755Z,2.92
2018-11-04T00:11:03.749Z,2.77
2018-11-04T00:12:03.731Z,2.86
2018-11-04T00:13:03.792Z,2.87
2018-11-04T00:14:03.724Z,2.79
2018-11-04T00:15:03.707Z,2.74
2018-11-04T00:16:03.693Z,2.79
2018-11-04T00:17:03.678Z,2.80
2018-11-04T00:18:03.665Z,2.69
2018-11-04T00:19:03.683Z,2.75
2018-11-04T00:20:03.665Z,2.79
2018-11-04T00:21:03.646Z,2.74
2018-11-04T00:22:03.622Z,2.74
2018-11-04T00:23:03.629Z,2.71
2018-11-04T00:24:03.698Z,2.69
2018-11-04T00:25:03.642Z,2.71
2018-11-04T00:26:03.582Z,2.72
2018-11-04T00:27:03.599Z,2.69
2018-11-04T00:28:03.560Z,2.71
2018-11-04T00:29:03.570Z,2.65
2018-11-04T00:30:03.544Z,2.67
2018-11-04T00:31:03.546Z,2.75
2018-11-04T00:32:03.514Z,2.69
2018-11-04T00:33:03.516Z,2.67
2018-11-04T00:34:03.514Z,2.75
2018-11-04T00:35:03.505Z,2.65
2018-11-04T00:36:03.489Z,2.67
2018-11-04T00:37:03.484Z,2.71
2018-11-04T00:38:03.449Z,2.64
2018-11-04T00:39:03.442Z,2.71
2018-11-04T00:40:03.440Z,2.65
2018-11-04T00:41:03.443Z,2.65
2018-11-04T00:42:03.428Z,2.62
2018-11-04T00:43:03.417Z,2.56
2018-11-04T00:44:03.392Z,2.64
2018-11-04T00:45:03.466Z,2.62
2018-11-04T00:46:03.372Z,2.64
2018-11-04T00:47:03.374Z,2.65
2018-11-04T00:48:03.366Z,2.64
2018-11-04T00:49:03.353Z,2.53
2018-11-04T00:50:03.323Z,2.64
2018-11-04T00:51:03.312Z,2.62
2018-11-04T00:52:03.392Z,2.65
2018-11-04T00:53:03.302Z,2.65
2018-11-04T00:54:03.292Z,2.64
2018-11-04T00:55:03.268Z,2.64
2018-11-04T00:56:03.269Z,2.64
2018-11-04T00:57:03.253Z,2.54
2018-11-04T00:58:03.251Z,2.65
2018-11-04T00:59:03.241Z,2.64
2018-11-04T01:00:03.246Z,2.53
2018-11-04T01:01:03.228Z,2.64
2018-11-04T01:02:03.251Z,2.60
2018-11-04T01:03:03.205Z,2.53
2018-11-04T01:04:03.180Z,2.54
2018-11-04T01:05:03.208Z,2.53
2018-11-04T01:06:03.152Z,2.50
2018-11-04T01:07:03.174Z,2.57
2018-11-04T01:08:03.133Z,2.53
2018-11-04T01:09:03.169Z,2.60
2018-11-04T01:10:03.117Z,2.60
2018-11-04T01:11:03.096Z,2.53
2018-11-04T01:12:03.104Z,2.53
2018-11-04T01:13:03.069Z,2.57
2018-11-04T01:14:03.070Z,2.60
2018-11-04T01:15:03.053Z,2.54
2018-11-04T01:16:03.036Z,2.53
2018-11-04T01:17:03.051Z,2.57
2018-11-04T01:18:03.037Z,2.56
2018-11-04T01:19:03.004Z,2.50
2018-11-04T01:20:02.992Z,2.50
2018-11-04T01:21:03.002Z,2.56
2018-11-04T01:22:02.981Z,2.49
2018-11-04T01:23:02.980Z,2.43
2018-11-04T01:24:02.958Z,2.53
2018-11-04T01:25:02.942Z,2.47
2018-11-04T01:26:02.928Z,2.50
2018-11-04T01:27:02.928Z,2.53
2018-11-04T01:28:02.921Z,2.54
2018-11-04T01:29:02.906Z,2.46
2018-11-04T01:30:02.886Z,2.51
2018-11-04T01:31:02.876Z,2.38
2018-11-04T01:32:02.862Z,2.53
2018-11-04T01:33:02.860Z,2.50
2018-11-04T01:34:02.846Z,2.47
2018-11-04T01:35:02.836Z,2.44
2018-11-04T01:36:02.853Z,2.54
2018-11-04T01:37:02.813Z,2.49
2018-11-04T01:38:02.799Z,2.53
2018-11-04T01:39:02.786Z,2.50
2018-11-04T01:40:02.789Z,2.42
2018-11-04T01:41:02.776Z,2.50
2018-11-04T01:42:02.754Z,2.49
2018-11-04T01:43:02.739Z,2.51
2018-11-04T01:44:02.739Z,2.33
2018-11-04T01:45:02.720Z,2.31
2018-11-04T01:46:02.711Z,2.42
2018-11-04T01:47:02.754Z,2.35
2018-11-04T01:48:02.688Z,2.38
2018-11-04T01:49:02.674Z,2.36
2018-11-04T01:50:02.672Z,2.31
2018-11-04T01:51:02.666Z,2.32
2018-11-04T01:52:02.668Z,2.36
2018-11-04T01:53:02.632Z,2.26
2018-11-04T01:54:02.620Z,2.36
2018-11-04T01:55:02.609Z,2.31
2018-11-04T01:56:02.611Z,2.26
2018-11-04T01:57:02.586Z,2.25
2018-11-04T01:58:02.585Z,2.32
2018-11-04T01:59:02.566Z,2.20
2018-11-04T02:00:02.564Z,2.26
2018-11-04T02:01:02.548Z,2.22
2018-11-04T02:02:02.532Z,2.24
2018-11-04T02:03:02.524Z,2.24
2018-11-04T02:04:02.527Z,2.17
2018-11-04T02:05:02.519Z,2.24
2018-11-04T02:06:02.492Z,2.25
2018-11-04T02:07:02.481Z,2.24
2018-11-04T02:08:02.463Z,2.20
2018-11-04T02:09:02.458Z,2.24
2018-11-04T02:10:02.447Z,2.20
2018-11-04T02:11:02.435Z,2.20
2018-11-04T02:12:02.421Z,2.32
2018-11-04T02:13:02.428Z,2.29
2018-11-04T02:14:02.398Z,2.17
2018-11-04T02:15:02.391Z,2.22
2018-11-04T02:16:02.378Z,2.25
2018-11-04T02:17:02.368Z,2.20
2018-11-04T02:18:02.360Z,2.22
2018-11-04T02:19:02.349Z,2.18
2018-11-04T02:20:02.334Z,2.17
2018-11-04T02:21:02.329Z,2.20
2018-11-04T02:22:02.312Z,2.17
2018-11-04T02:23:02.325Z,2.13
2018-11-04T02:24:02.294Z,2.17
2018-11-04T02:25:02.286Z,2.08
2018-11-04T02:26:02.288Z,2.17
2018-11-04T02:27:02.260Z,2.18
2018-11-04T02:28:02.250Z,2.15
2018-11-04T02:29:02.242Z,2.17
2018-11-04T02:30:02.227Z,2.15
2018-11-04T02:31:02.213Z,2.18
2018-11-04T02:32:02.204Z,2.20
2018-11-04T02:33:02.231Z,2.15
2018-11-04T02:34:02.180Z,2.25
2018-11-04T02:35:02.170Z,2.18
2018-11-04T02:36:02.164Z,2.15
2018-11-04T02:37:02.153Z,2.17
2018-11-04T02:38:02.149Z,2.18
2018-11-04T02:39:02.128Z,2.18
2018-11-04T02:40:02.127Z,2.20
2018-11-04T02:41:02.116Z,2.28
2018-11-04T02:42:02.130Z,2.18
2018-11-04T02:43:02.096Z,2.32
2018-11-04T02:44:02.084Z,2.29
2018-11-04T02:45:02.060Z,2.31
2018-11-04T02:46:02.049Z,2.32
2018-11-04T02:47:02.123Z,2.26
2018-11-04T02:48:02.044Z,2.29
2018-11-04T02:49:02.033Z,2.29
2018-11-04T02:50:02.037Z,2.35
2018-11-04T02:51:02.138Z,2.31
2018-11-04T02:52:02.049Z,2.29
2018-11-04T02:53:01.978Z,2.29
2018-11-04T02:54:02.013Z,2.35
2018-11-04T02:55:01.964Z,2.32
2018-11-04T02:56:01.975Z,2.33
2018-11-04T02:57:01.935Z,2.36
2018-11-04T02:58:01.918Z,2.25
2018-11-04T02:59:01.916Z,2.29
2018-11-04T03:00:01.904Z,2.26
2018-11-04T03:01:01.900Z,2.24
2018-11-04T03:02:01.986Z,2.26
2018-11-04T03:03:01.866Z,2.29
2018-11-04T03:04:01.854Z,2.29
2018-11-04T03:05:01.868Z,2.32
2018-11-04T03:06:01.847Z,2.24
2018-11-04T03:07:01.847Z,2.26
2018-11-04T03:08:01.811Z,2.35
2018-11-04T03:09:01.804Z,2.32
2018-11-04T03:10:01.788Z,2.31
2018-11-04T03:11:01.790Z,2.32
2018-11-04T03:12:01.760Z,2.28
2018-11-04T03:13:01.764Z,2.29
2018-11-04T03:14:01.742Z,2.26
2018-11-04T03:15:01.731Z,2.14
2018-11-04T03:16:01.718Z,2.32
2018-11-04T03:17:01.708Z,2.33
2018-11-04T03:18:01.706Z,2.20
2018-11-04T03:19:01.694Z,2.29
2018-11-04T03:20:01.695Z,2.20
2018-11-04T03:21:01.662Z,2.29
2018-11-04T03:22:01.664Z,2.32
2018-11-04T03:23:01.691Z,2.28
2018-11-04T03:24:01.637Z,2.24
2018-11-04T03:25:01.643Z,2.28
2018-11-04T03:26:01.612Z,2.22
2018-11-04T03:27:01.604Z,2.31
2018-11-04T03:28:01.589Z,2.33
2018-11-04T03:29:01.575Z,2.25
2018-11-04T03:30:01.585Z,2.28
2018-11-04T03:31:01.558Z,2.15
2018-11-04T03:32:01.550Z,2.28
2018-11-04T03:33:01.537Z,2.26
2018-11-04T03:34:01.524Z,2.31
2018-11-04T03:35:01.506Z,2.29
2018-11-04T03:36:01.509Z,2.31
2018-11-04T03:37:01.488Z,2.31
2018-11-04T03:38:01.490Z,2.29
2018-11-04T03:39:01.467Z,2.33
2018-11-04T03:40:01.471Z,2.31
2018-11-04T03:41:01.448Z,2.17
2018-11-04T03:42:01.437Z,2.32
2018-11-04T03:43:01.419Z,2.32
2018-11-04T03:44:01.408Z,2.32
2018-11-04T03:45:01.402Z,2.26
2018-11-04T03:46:01.391Z,2.22
2018-11-04T03:47:01.382Z,2.31
2018-11-04T03:48:01.373Z,2.28
2018-11-04T03:49:01.357Z,2.29
2018-11-04T03:50:01.344Z,2.29
2018-11-04T03:51:01.337Z,2.26
2018-11-04T03:52:01.323Z,2.17
2018-11-04T03:53:01.322Z,2.22
2018-11-04T03:54:01.297Z,2.25
2018-11-04T03:55:01.297Z,2.28
2018-11-04T03:56:01.278Z,2.17
2018-11-04T03:57:01.287Z,2.31
2018-11-04T03:58:01.276Z,2.20
2018-11-04T03:59:01.269Z,2.22
2018-11-04T04:00:01.233Z,2.29
2018-11-04T04:01:01.230Z,2.28
2018-11-04T04:02:01.211Z,2.25
2018-11-04T04:03:01.199Z,2.28
2018-11-04T04:04:01.191Z,2.18
2018-11-04T04:05:01.197Z,2.26
2018-11-04T04:06:01.176Z,2.25
2018-11-04T04:07:01.167Z,2.35
2018-11-04T04:08:01.146Z,2.31
2018-11-04T04:09:01.137Z,2.32
2018-11-04T04:10:01.133Z,2.28
2018-11-04T04:11:01.122Z,2.28
2018-11-04T04:12:01.102Z,2.38
2018-11-04T04:13:01.099Z,2.36
2018-11-04T04:14:01.086Z,2.24
2018-11-04T04:15:01.074Z,2.28
2018-11-04T04:16:01.065Z,2.33
2018-11-04T04:17:01.052Z,2.35
2018-11-04T04:18:01.045Z,2.35
2018-11-04T04:19:01.029Z,2.22
2018-11-04T04:20:01.022Z,2.24
2018-11-04T04:21:01.034Z,2.31
2018-11-04T04:22:00.995Z,2.31
2018-11-04T04:23:00.982Z,2.33
2018-11-04T04:24:00.977Z,2.31
2018-11-04T04:25:00.961Z,2.28
2018-11-04T04:26:00.948Z,2.35
2018-11-04T04:27:00.964Z,2.43
2018-11-04T04:28:00.931Z,2.38
2018-11-04T04:29:00.935Z,2.49
2018-11-04T04:30:00.907Z,2.39
2018-11-04T04:31:00.894Z,2.43
2018-11-04T04:32:00.882Z,2.38
2018-11-04T04:33:00.875Z,2.35
2018-11-04T04:34:00.866Z,2.33
2018-11-04T04:35:00.853Z,2.32
2018-11-04T04:36:00.846Z,2.43
2018-11-04T04:37:00.828Z,2.36
2018-11-04T04:38:00.818Z,2.33
2018-11-04T04:39:00.809Z,2.15
2018-11-04T04:40:00.799Z,2.17
2018-11-04T04:41:00.784Z,2.18
2018-11-04T04:42:00.799Z,2.24
2018-11-04T04:43:00.765Z,2.20
2018-11-04T04:44:00.762Z,2.29
2018-11-04T04:45:00.746Z,2.28
2018-11-04T04:46:00.727Z,2.22
2018-11-04T04:47:00.718Z,2.28
2018-11-04T04:48:00.708Z,2.28
2018-11-04T04:49:00.702Z,2.17
2018-11-04T04:50:00.709Z,2.24
2018-11-04T04:51:00.680Z,2.18
2018-11-04T04:52:00.665Z,2.22
2018-11-04T04:53:00.662Z,2.20
2018-11-04T04:54:00.641Z,2.20
2018-11-04T04:55:00.644Z,2.26
2018-11-04T04:56:00.631Z,2.35
2018-11-04T04:57:00.622Z,2.28
2018-11-04T04:58:00.597Z,2.29
2018-11-04T04:59:00.586Z,2.42
2018-11-04T05:00:00.582Z,2.35
2018-11-04T05:01:00.578Z,2.38
2018-11-04T05:02:00.582Z,2.43
2018-11-04T05:03:00.579Z,2.49
2018-11-04T05:04:00.535Z,2.53
2018-11-04T05:05:00.544Z,2.49
2018-11-04T05:06:00.511Z,2.53
2018-11-04T05:07:00.506Z,2.49
2018-11-04T05:08:00.486Z,2.51
2018-11-04T05:09:00.488Z,2.50
2018-11-04T05:10:00.470Z,2.54
2018-11-04T05:11:00.472Z,2.53
2018-11-04T05:12:00.446Z,2.60
2018-11-04T05:13:00.443Z,2.62
2018-11-04T05:14:00.420Z,2.53
2018-11-04T05:15:00.415Z,2.60
2018-11-04T05:16:00.404Z,2.54
2018-11-04T05:17:00.394Z,2.50
2018-11-04T05:18:00.384Z,2.50
2018-11-04T05:19:00.376Z,2.51
2018-11-04T05:20:00.361Z,2.54
2018-11-04T05:21:00.345Z,2.49
2018-11-04T05:22:00.338Z,2.50
2018-11-04T05:23:00.324Z,2.54
2018-11-04T05:24:00.313Z,2.54
2018-11-04T05:25:00.318Z,2.53
2018-11-04T05:26:00.323Z,2.56
2018-11-04T05:27:00.282Z,2.57
2018-11-04T05:28:00.272Z,2.56
2018-11-04T05:29:00.260Z,2.60
2018-11-04T05:30:00.256Z,2.61
2018-11-04T05:31:00.238Z,2.56
2018-11-04T05:32:00.228Z,2.54
2018-11-04T05:33:00.218Z,2.56
2018-11-04T05:34:00.210Z,2.56
2018-11-04T05:35:00.197Z,2.57
2018-11-04T05:36:00.191Z,2.51
2018-11-04T05:37:00.173Z,2.56
2018-11-04T05:38:00.162Z,2.57
2018-11-04T05:39:00.149Z,2.56
2018-11-04T05:40:00.137Z,2.53
2018-11-04T05:41:00.158Z,2.64
2018-11-04T05:42:00.125Z,2.65
2018-11-04T05:43:00.103Z,2.64
2018-11-04T05:44:00.097Z,2.68
2018-11-04T05:45:00.085Z,2.72
2018-11-04T05:46:00.075Z,2.72
2018-11-04T05:47:00.088Z,2.68
2018-11-04T05:48:00.063Z,2.71
2018-11-04T05:49:00.041Z,2.72
2018-11-04T05:50:00.029Z,2.74
2018-11-04T05:51:00.027Z,2.72
2018-11-04T05:52:00.009Z,2.75
2018-11-04T05:53:00.009Z,2.80
2018-11-04T05:53:59.983Z,2.79
2018-11-04T05:54:59.979Z,2.77
2018-11-04T05:55:59.966Z,2.75
2018-11-04T05:56:59.967Z,2.87
2018-11-04T05:57:59.939Z,2.83
2018-11-04T05:58:59.951Z,2.86
2018-11-04T05:59:59.918Z,2.89
2018-11-04T06:00:59.940Z,2.85
2018-11-04T06:01:59.899Z,2.86
2018-11-04T06:02:59.886Z,2.87
2018-11-04T06:03:59.876Z,2.86
2018-11-04T06:04:59.872Z,2.83
2018-11-04T06:05:59.858Z,2.89
2018-11-04T06:06:59.861Z,2.92
2018-11-04T06:07:59.833Z,2.92
2018-11-04T06:08:59.821Z,2.95
2018-11-04T06:09:59.818Z,2.98
2018-11-04T06:10:59.813Z,3.00
2018-11-04T06:11:59.801Z,2.95
2018-11-04T06:12:59.832Z,2.98
2018-11-04T06:13:59.773Z,2.98
2018-11-04T06:14:59.773Z,2.90
2018-11-04T06:15:59.759Z,2.95
2018-11-04T06:16:59.740Z,2.93
2018-11-04T06:17:59.729Z,3.00
2018-11-04T06:18:59.745Z,3.00
2018-11-04T06:19:59.709Z,3.01
2018-11-04T06:20:59.709Z,2.95
2018-11-04T06:21:59.690Z,3.04
2018-11-04T06:22:59.695Z,2.95
2018-11-04T06:23:59.682Z,2.95
2018-11-04T06:24:59.650Z,2.95
2018-11-04T06:25:59.640Z,3.07
2018-11-04T06:26:59.637Z,3.03
2018-11-04T06:27:59.625Z,3.05
2018-11-04T06:28:59.637Z,3.00
2018-11-04T06:29:59.603Z,3.04
2018-11-04T06:30:59.592Z,3.01
2018-11-04T06:31:59.578Z,3.00
2018-11-04T06:32:59.566Z,3.11
2018-11-04T06:33:59.560Z,3.14
2018-11-04T06:34:59.549Z,3.14
2018-11-04T06:35:59.528Z,3.07
2018-11-04T06:36:59.522Z,3.07
2018-11-04T06:37:59.509Z,3.07
2018-11-04T06:38:59.510Z,3.10
2018-11-04T06:39:59.492Z,3.08
2018-11-04T06:40:59.550Z,3.04
2018-11-04T06:41:59.504Z,3.04
2018-11-04T06:42:59.456Z,3.05
2018-11-04T06:43:59.446Z,3.04
2018-11-04T06:44:59.466Z,3.07
2018-11-04T06:45:59.428Z,3.03
2018-11-04T06:46:59.476Z,3.14
2018-11-04T06:47:59.404Z,3.04
2018-11-04T06:48:59.402Z,3.05
2018-11-04T06:49:59.385Z,3.10
2018-11-04T06:50:59.394Z,3.03
2018-11-04T06:51:59.363Z,3.11
2018-11-04T06:52:59.376Z,3.16
2018-11-04T06:53:59.337Z,3.14
2018-11-04T06:54:59.337Z,3.10
2018-11-04T06:55:59.318Z,3.13
2018-11-04T06:56:59.313Z,3.10
2018-11-04T06:57:59.326Z,3.18
2018-11-04T06:58:59.289Z,3.11
2018-11-04T06:59:59.381Z,3.14
2018-11-04T07:00:59.277Z,3.21
2018-11-04T07:01:59.253Z,3.14
2018-11-04T07:02:59.256Z,3.26
2018-11-04T07:03:59.235Z,3.25
2018-11-04T07:04:59.240Z,3.26
2018-11-04T07:05:59.221Z,3.26
2018-11-04T07:06:59.220Z,3.23
2018-11-04T07:07:59.197Z,3.32
2018-11-04T07:08:59.249Z,3.28
2018-11-04T07:09:59.175Z,3.32
2018-11-04T07:10:59.172Z,3.29
2018-11-04T07:11:59.147Z,3.28
2018-11-04T07:12:59.142Z,3.36
2018-11-04T07:13:59.133Z,3.40
2018-11-04T07:14:59.120Z,3.40
2018-11-04T07:15:59.118Z,3.41
2018-11-04T07:16:59.105Z,3.48
2018-11-04T07:17:59.083Z,3.48
2018-11-04T07:18:59.082Z,3.50
2018-11-04T07:19:59.098Z,3.51
2018-11-04T07:20:59.054Z,3.47
2018-11-04T07:21:59.073Z,3.51
2018-11-04T07:22:59.041Z,3.60
2018-11-04T07:23:59.030Z,3.51
2018-11-04T07:24:59.011Z,3.48
2018-11-04T07:25:59.016Z,3.59
2018-11-04T07:26:58.993Z,3.55
2018-11-04T07:27:58.982Z,3.58
2018-11-04T07:28:58.979Z,3.53
2018-11-04T07:29:58.968Z,3.65
2018-11-04T07:30:58.955Z,3.66
2018-11-04T07:31:58.997Z,3.60
2018-11-04T07:32:58.944Z,3.66
2018-11-04T07:33:58.915Z,3.63
2018-11-04T07:34:58.905Z,3.68
2018-11-04T07:35:58.903Z,3.74
2018-11-04T07:36:58.888Z,3.76
2018-11-04T07:37:58.885Z,3.77
2018-11-04T07:38:58.890Z,3.76
2018-11-04T07:39:58.853Z,3.70
2018-11-04T07:40:58.842Z,3.87
2018-11-04T07:41:58.849Z,3.88
2018-11-04T07:42:58.834Z,3.91
2018-11-04T07:43:58.820Z,3.81
2018-11-04T07:44:58.805Z,3.87
2018-11-04T07:45:58.792Z,3.91
2018-11-04T07:46:58.782Z,3.94
2018-11-04T07:47:58.787Z,3.98
2018-11-04T07:48:58.764Z,3.91
2018-11-04T07:49:58.755Z,3.92
2018-11-04T07:50:58.756Z,3.96
2018-11-04T07:51:58.731Z,3.92
2018-11-04T07:52:58.729Z,4.01
2018-11-04T07:53:58.724Z,4.04
2018-11-04T07:54:58.701Z,4.06
2018-11-04T07:55:58.701Z,4.06
2018-11-04T07:56:58.743Z,4.10
2018-11-04T07:57:58.669Z,4.14
2018-11-04T07:58:58.663Z,4.19
2018-11-04T07:59:58.659Z,4.13
2018-11-04T08:00:58.755Z,4.19
2018-11-04T08:01:58.639Z,4.16
2018-11-04T08:02:58.626Z,4.16
2018-11-04T08:03:58.613Z,4.19
2018-11-04T08:04:58.605Z,4.16
2018-11-04T08:05:58.599Z,4.28
2018-11-04T08:06:58.580Z,4.19
2018-11-04T08:07:58.573Z,4.22
2018-11-04T08:08:58.609Z,4.22
2018-11-04T08:09:58.552Z,4.24
2018-11-04T08:10:58.545Z,4.34
2018-11-04T08:11:58.539Z,4.22
2018-11-04T08:12:58.527Z,4.31
2018-11-04T08:13:58.516Z,4.32
2018-11-04T08:14:58.499Z,4.41
2018-11-04T08:15:58.502Z,4.42
2018-11-04T08:16:58.484Z,4.45
2018-11-04T08:17:58.473Z,4.44
2018-11-04T08:18:58.463Z,4.49
2018-11-04T08:19:58.454Z,4.44
2018-11-04T08:20:58.449Z,4.52
2018-11-04T08:21:58.443Z,4.49
2018-11-04T08:22:58.421Z,4.49
2018-11-04T08:23:58.417Z,4.59
2018-11-04T08:24:58.403Z,4.55
2018-11-04T08:25:58.390Z,4.58
2018-11-04T08:26:58.386Z,4.60
2018-11-04T08:27:58.400Z,4.62
2018-11-04T08:28:58.365Z,4.62
2018-11-04T08:29:58.351Z,4.60
2018-11-04T08:30:58.344Z,4.63
2018-11-04T08:31:58.338Z,4.71
2018-11-04T08:32:58.322Z,4.66
2018-11-04T08:33:58.318Z,4.73
2018-11-04T08:34:58.306Z,4.70
2018-11-04T08:35:58.303Z,4.77
2018-11-04T08:36:58.293Z,4.71
2018-11-04T08:37:58.288Z,4.78
2018-11-04T08:38:58.265Z,4.75
2018-11-04T08:39:58.377Z,4.77
2018-11-04T08:40:58.246Z,4.75
2018-11-04T08:41:58.235Z,4.75
2018-11-04T08:42:58.224Z,4.87
2018-11-04T08:43:59.101Z,4.87
2018-11-04T08:44:58.203Z,4.78
2018-11-04T08:45:58.323Z,4.75
2018-11-04T08:46:58.185Z,4.90
2018-11-04T08:47:58.181Z,4.92
2018-11-04T08:48:58.167Z,4.94
2018-11-04T08:49:58.157Z,4.94
2018-11-04T08:50:58.148Z,4.97
2018-11-04T08:51:58.136Z,4.94
2018-11-04T08:52:58.131Z,5.02
2018-11-04T08:53:58.118Z,5.04
2018-11-04T08:54:58.116Z,5.10
2018-11-04T08:55:58.162Z,5.17
2018-11-04T08:56:58.089Z,5.17
2018-11-04T08:57:58.079Z,5.11
2018-11-04T08:58:58.081Z,5.14
2018-11-04T08:59:58.086Z,5.11
2018-11-04T09:00:58.051Z,5.15
2018-11-04T09:01:58.038Z,5.17
2018-11-04T09:02:58.050Z,5.18
2018-11-04T09:03:58.023Z,5.15
2018-11-04T09:04:58.011Z,5.28
2018-11-04T09:05:58.000Z,5.26
2018-11-04T09:06:58.009Z,5.29
2018-11-04T09:07:57.981Z,5.28
2018-11-04T09:08:57.989Z,5.30
2018-11-04T09:09:57.967Z,5.30
2018-11-04T09:10:57.953Z,5.29
2018-11-04T09:11:58.598Z,5.47
2018-11-04T09:12:57.940Z,5.47
2018-11-04T09:13:57.924Z,5.50
2018-11-04T09:14:57.917Z,5.47
2018-11-04T09:15:57.907Z,5.54
2018-11-04T09:16:57.895Z,5.65
2018-11-04T09:17:57.882Z,5.59
2018-11-04T09:18:57.882Z,5.62
2018-11-04T09:19:57.877Z,5.68
2018-11-04T09:20:57.858Z,5.68
2018-11-04T09:21:58.000Z,5.66
2018-11-04T09:22:57.836Z,5.65
2018-11-04T09:23:57.835Z,5.75
2018-11-04T09:24:57.825Z,5.75
2018-11-04T09:25:57.815Z,5.82
2018-11-04T09:26:57.800Z,5.82
2018-11-04T09:27:57.795Z,5.84
2018-11-04T09:28:57.922Z,5.84
2018-11-04T09:29:57.774Z,5.89
2018-11-04T09:30:57.767Z,5.90
2018-11-04T09:31:57.758Z,5.91
2018-11-04T09:32:57.745Z,5.94
2018-11-04T09:33:57.757Z,5.94
2018-11-04T09:34:57.808Z,6.04
2018-11-04T09:35:57.778Z,6.07
2018-11-04T09:36:57.713Z,6.11
2018-11-04T09:37:57.699Z,6.05
2018-11-04T09:38:57.741Z,6.17
2018-11-04T09:39:57.680Z,6.12
2018-11-04T09:40:57.669Z,6.11
2018-11-04T09:41:57.673Z,6.14
2018-11-04T09:42:57.653Z,6.17
2018-11-04T09:43:57.667Z,6.27
2018-11-04T09:44:57.646Z,6.26
2018-11-04T09:45:57.629Z,6.31
2018-11-04T09:46:57.711Z,6.27
2018-11-04T09:47:57.614Z,6.42
2018-11-04T09:48:57.597Z,6.36
2018-11-04T09:49:57.672Z,6.46
2018-11-04T09:50:57.600Z,6.38
2018-11-04T09:51:57.570Z,6.48
2018-11-04T09:52:57.568Z,6.45
2018-11-04T09:53:57.567Z,6.52
2018-11-04T09:54:57.542Z,6.45
2018-11-04T09:55:57.540Z,6.57
2018-11-04T09:56:57.533Z,6.54
2018-11-04T09:57:57.519Z,6.49
2018-11-04T09:58:57.507Z,6.57
2018-11-04T09:59:57.500Z,6.54
2018-11-04T10:00:57.510Z,6.52
2018-11-04T10:01:57.488Z,6.64
2018-11-04T10:02:57.481Z,6.57
2018-11-04T10:03:57.471Z,6.64
2018-11-04T10:04:57.453Z,6.67
2018-11-04T10:05:57.449Z,6.72
2018-11-04T10:06:57.489Z,6.62
2018-11-04T10:07:57.430Z,6.69
2018-11-04T10:08:57.441Z,6.77
2018-11-04T10:09:57.411Z,6.85
2018-11-04T10:10:57.425Z,6.88
2018-11-04T10:11:57.396Z,6.89
2018-11-04T10:12:57.381Z,7.02
2018-11-04T10:13:57.376Z,6.96
2018-11-04T10:14:57.369Z,6.99
2018-11-04T10:15:57.809Z,7.05
2018-11-04T10:16:58.773Z,7.05
2018-11-04T10:17:57.335Z,7.11
2018-11-04T10:18:57.436Z,7.20
2018-11-04T10:19:57.593Z,7.14
2018-11-04T10:20:57.708Z,7.17
2018-11-04T10:21:57.324Z,7.18
2018-11-04T10:22:57.322Z,7.18
2018-11-04T10:23:57.311Z,7.20
2018-11-04T10:24:57.289Z,7.20
2018-11-04T10:25:57.276Z,7.15
2018-11-04T10:26:57.291Z,7.31
2018-11-04T10:27:57.249Z,7.32
2018-11-04T10:28:57.244Z,7.40
2018-11-04T10:29:57.262Z,7.39
2018-11-04T10:30:57.225Z,7.45
2018-11-04T10:31:57.266Z,7.40
2018-11-04T10:32:57.255Z,7.39
2018-11-04T10:33:57.234Z,7.53
2018-11-04T10:34:57.195Z,7.51
2018-11-04T10:35:57.210Z,7.54
2018-11-04T10:36:57.190Z,7.58
2018-11-04T10:37:57.166Z,7.61
2018-11-04T10:38:57.188Z,7.67
2018-11-04T10:39:57.151Z,7.63
2018-11-04T10:40:57.145Z,7.72
2018-11-04T10:41:57.136Z,7.75
2018-11-04T10:42:57.126Z,7.72
2018-11-04T10:43:57.122Z,7.77
2018-11-04T10:44:57.111Z,7.80
2018-11-04T10:45:57.100Z,7.91
2018-11-04T10:46:57.095Z,7.83
2018-11-04T10:47:57.089Z,7.95
2018-11-04T10:48:57.075Z,7.80
2018-11-04T10:49:57.161Z,7.94
2018-11-04T10:50:57.073Z,7.82
2018-11-04T10:51:57.049Z,7.91
2018-11-04T10:52:57.039Z,7.90
2018-11-04T10:53:57.035Z,7.94
2018-11-04T10:54:57.022Z,7.93
2018-11-04T10:55:57.162Z,7.95
2018-11-04T10:56:57.041Z,7.93
2018-11-04T10:57:57.002Z,8.03
2018-11-04T10:58:56.990Z,8.09
2018-11-04T10:59:56.984Z,8.08
2018-11-04T11:00:56.976Z,7.97
2018-11-04T11:01:56.966Z,8.18
2018-11-04T11:02:56.958Z,8.10
2018-11-04T11:03:56.967Z,8.10
2018-11-04T11:04:57.663Z,8.19
2018-11-04T11:05:56.937Z,8.08
2018-11-04T11:06:56.930Z,8.13
2018-11-04T11:07:56.931Z,8.12
2018-11-04T11:08:56.911Z,8.06
2018-11-04T11:09:56.915Z,8.18
2018-11-04T11:10:56.946Z,8.19
2018-11-04T11:11:57.646Z,8.26
2018-11-04T11:12:56.887Z,8.18
2018-11-04T11:13:56.877Z,8.30
2018-11-04T11:14:56.863Z,8.42
2018-11-04T11:15:56.854Z,8.41
2018-11-04T11:16:56.859Z,8.34
2018-11-04T11:17:56.837Z,8.45
2018-11-04T11:18:56.830Z,8.44
2018-11-04T11:19:56.820Z,8.34
2018-11-04T11:20:56.814Z,8.36
2018-11-04T11:21:56.801Z,8.48
2018-11-04T11:22:56.949Z,8.45
2018-11-04T11:23:56.794Z,8.45
2018-11-04T11:24:56.793Z,8.55
2018-11-04T11:25:56.769Z,8.53
2018-11-04T11:26:56.777Z,8.56
2018-11-04T11:27:56.758Z,8.58
2018-11-04T11:28:56.754Z,8.64
2018-11-04T11:29:56.751Z,8.63
2018-11-04T11:30:56.734Z,8.71
2018-11-04T11:31:56.723Z,8.67
2018-11-04T11:32:56.711Z,8.69
2018-11-04T11:33:56.705Z,8.69
2018-11-04T11:34:56.698Z,8.74
2018-11-04T11:35:56.686Z,8.74
2018-11-04T11:36:56.689Z,8.81
2018-11-04T11:37:56.729Z,8.81
2018-11-04T11:38:56.674Z,8.88
2018-11-04T11:39:56.653Z,8.91
2018-11-04T11:40:56.650Z,8.88
2018-11-04T11:41:56.639Z,8.89
2018-11-04T11:42:56.630Z,8.95
2018-11-04T11:43:56.625Z,9.00
2018-11-04T11:44:56.695Z,8.94
2018-11-04T11:45:56.650Z,8.85
2018-11-04T11:46:56.605Z,9.02
2018-11-04T11:47:56.596Z,8.91
2018-11-04T11:48:56.866Z,9.02
2018-11-04T11:49:56.598Z,9.00
2018-11-04T11:50:56.759Z,9.08
2018-11-04T11:51:56.563Z,9.06
2018-11-04T11:52:56.552Z,9.10
2018-11-04T11:53:56.549Z,9.16
2018-11-04T11:54:56.538Z,9.18
2018-11-04T11:55:56.530Z,9.11
2018-11-04T11:56:56.519Z,9.18
2018-11-04T11:57:56.516Z,9.10
2018-11-04T11:58:56.506Z,9.18
2018-11-04T11:59:56.494Z,9.22
2018-11-04T12:00:56.493Z,9.19
2018-11-04T12:01:56.481Z,9.23
2018-11-04T12:02:56.473Z,9.22
2018-11-04T12:03:56.466Z,9.16
2018-11-04T12:04:56.471Z,9.25
2018-11-04T12:05:56.452Z,9.29
2018-11-04T12:06:56.447Z,9.32
2018-11-04T12:07:56.444Z,9.28
2018-11-04T12:08:56.425Z,9.39
2018-11-04T12:09:56.418Z,9.44
2018-11-04T12:10:56.410Z,9.37
2018-11-04T12:11:56.411Z,9.39
2018-11-04T12:12:56.411Z,9.43
2018-11-04T12:13:56.389Z,9.40
2018-11-04T12:14:56.383Z,9.39
2018-11-04T12:15:56.387Z,9.54
2018-11-04T12:16:56.365Z,9.54
2018-11-04T12:17:56.451Z,9.47
2018-11-04T12:18:56.390Z,9.55
2018-11-04T12:19:56.352Z,9.55
2018-11-04T12:20:56.342Z,9.58
2018-11-04T12:21:56.327Z,9.61
2018-11-04T12:22:56.318Z,9.65
2018-11-04T12:23:56.310Z,9.73
2018-11-04T12:24:56.305Z,9.65
2018-11-04T12:25:56.297Z,9.72
2018-11-04T12:26:56.301Z,9.74
2018-11-04T12:27:56.280Z,9.82
2018-11-04T12:28:56.272Z,9.76
2018-11-04T12:29:56.272Z,9.83
2018-11-04T12:30:56.255Z,9.82
2018-11-04T12:31:56.251Z,9.79
2018-11-04T12:32:56.246Z,9.92
2018-11-04T12:33:56.237Z,9.84
2018-11-04T12:34:56.241Z,9.83
2018-11-04T12:35:56.250Z,9.83
2018-11-04T12:36:56.236Z,9.91
2018-11-04T12:37:56.202Z,9.91
2018-11-04T12:38:56.207Z,9.89
2018-11-04T12:39:56.190Z,9.98
2018-11-04T12:40:56.185Z,9.99
2018-11-04T12:41:56.197Z,9.94
2018-11-04T12:42:56.169Z,9.95
2018-11-04T12:43:56.167Z,9.97
2018-11-04T12:44:56.153Z,9.98
2018-11-04T12:45:56.163Z,10.04
2018-11-04T12:46:56.146Z,10.13
2018-11-04T12:47:56.152Z,10.09
2018-11-04T12:48:56.145Z,10.10
2018-11-04T12:49:56.117Z,10.10
2018-11-04T12:50:56.117Z,10.12
2018-11-04T12:51:56.113Z,10.20
2018-11-04T12:52:56.097Z,10.23
2018-11-04T12:53:56.086Z,10.23
2018-11-04T12:54:56.087Z,10.22
2018-11-04T12:55:56.091Z,10.19
2018-11-04T12:56:56.067Z,10.34
2018-11-04T12:57:56.056Z,10.35
2018-11-04T12:58:56.056Z,10.28
2018-11-04T12:59:56.044Z,10.34
2018-11-04T13:00:56.051Z,10.28
2018-11-04T13:01:56.104Z,10.41
2018-11-04T13:02:56.030Z,10.33
2018-11-04T13:03:56.028Z,10.38
2018-11-04T13:04:56.013Z,10.30
2018-11-04T13:05:56.014Z,10.44
2018-11-04T13:06:56.037Z,10.44
2018-11-04T13:07:55.994Z,10.49
2018-11-04T13:08:55.975Z,10.49
2018-11-04T13:09:56.022Z,10.44
2018-11-04T13:10:55.968Z,10.51
2018-11-04T13:11:55.955Z,10.46
2018-11-04T13:12:55.960Z,10.54
2018-11-04T13:13:55.947Z,10.57
2018-11-04T13:14:55.937Z,10.60
2018-11-04T13:15:55.926Z,10.57
2018-11-04T13:16:55.924Z,10.61